createdAt,value
2022-12-31T00:01:16.600Z,90.13
2022-12-31T00:06:21.421Z,90.53
2022-12-31T00:11:23.500Z,90.85
2022-12-31T00:16:26.526Z,90.35
2022-12-31T00:21:29.327Z,90.57
2022-12-31T00:26:32.389Z,90.76
2022-12-31T00:31:35.326Z,90.99
2022-12-31T00:36:37.620Z,90.75
2022-12-31T00:41:39.317Z,91.01
2022-12-31T00:51:41.139Z,91.23
2022-12-31T00:56:42.514Z,90.76
2022-12-31T01:01:44.072Z,90.87
2022-12-31T01:06:45.594Z,90.79
2022-12-31T01:11:49.561Z,90.60
2022-12-31T01:16:52.075Z,90.13
2022-12-31T01:21:53.895Z,89.93
2022-12-31T01:26:57.732Z,89.64
2022-12-31T01:32:00.526Z,89.38
2022-12-31T01:37:01.892Z,89.09
2022-12-31T01:42:03.263Z,88.97
2022-12-31T01:47:05.812Z,88.82
2022-12-31T01:52:18.136Z,88.81
2022-12-31T01:57:19.864Z,88.72
2022-12-31T02:02:21.619Z,88.57
2022-12-31T02:07:23.559Z,88.46
2022-12-31T02:12:24.927Z,88.47
2022-12-31T02:17:33.966Z,88.52
2022-12-31T02:22:41.561Z,88.89
2022-12-31T02:28:01.868Z,88.86
2022-12-31T02:33:16.711Z,89.10
2022-12-31T02:38:20.887Z,89.21
2022-12-31T02:43:22.241Z,89.60
2022-12-31T02:48:34.439Z,89.47
2022-12-31T02:53:42.010Z,89.93
2022-12-31T02:59:05.112Z,89.87
2022-12-31T03:04:24.960Z,90.43
2022-12-31T03:09:26.310Z,90.15
2022-12-31T03:14:27.658Z,90.05
2022-12-31T03:20:01.305Z,90.16
2022-12-31T03:25:21.262Z,89.98
2022-12-31T03:30:23.358Z,90.19
2022-12-31T03:35:25.734Z,90.40
2022-12-31T03:40:28.390Z,90.76
2022-12-31T03:45:30.582Z,90.68
2022-12-31T03:50:31.978Z,90.64
2022-12-31T03:55:33.305Z,90.79
2022-12-31T04:00:34.791Z,90.94
2022-12-31T04:05:36.158Z,91.52
2022-12-31T04:10:37.537Z,91.65
2022-12-31T04:15:39.001Z,91.97
2022-12-31T04:20:40.421Z,91.89
2022-12-31T04:25:41.791Z,92.10
2022-12-31T04:30:45.699Z,92.23
2022-12-31T04:35:47.089Z,92.71
2022-12-31T04:41:06.860Z,92.83
2022-12-31T04:46:08.279Z,92.57
2022-12-31T04:51:10.051Z,92.66
2022-12-31T04:56:12.382Z,92.47
2022-12-31T05:01:14.194Z,92.72
2022-12-31T05:06:17.090Z,92.51
2022-12-31T05:11:18.439Z,92.63
2022-12-31T05:16:19.943Z,92.21
2022-12-31T05:21:22.107Z,92.29
2022-12-31T05:26:23.607Z,92.74
2022-12-31T05:31:24.951Z,92.28
2022-12-31T05:36:26.361Z,92.34
2022-12-31T05:41:27.699Z,92.47
2022-12-31T05:46:29.162Z,92.30
2022-12-31T05:51:30.688Z,92.27
2022-12-31T05:56:32.040Z,92.49
2022-12-31T06:01:33.581Z,92.26
2022-12-31T06:06:35.035Z,91.90
2022-12-31T06:11:36.541Z,91.12
2022-12-31T06:16:39.087Z,90.69
2022-12-31T06:21:40.480Z,90.79
2022-12-31T06:26:41.949Z,91.09
2022-12-31T06:31:43.838Z,91.04
2022-12-31T06:36:45.227Z,91.28
2022-12-31T06:41:46.578Z,91.34
2022-12-31T06:46:48.648Z,91.48
2022-12-31T06:51:50.704Z,91.45
2022-12-31T06:56:52.161Z,91.48
2022-12-31T07:02:08.969Z,91.89
2022-12-31T07:07:32.825Z,92.03
2022-12-31T07:12:53.252Z,92.05
2022-12-31T07:18:02.454Z,91.76
2022-12-31T07:23:03.951Z,91.10
2022-12-31T07:28:18.588Z,90.81
2022-12-31T07:33:38.811Z,90.51
2022-12-31T07:38:40.210Z,90.25
2022-12-31T07:43:54.041Z,89.78
2022-12-31T07:48:55.548Z,89.07
2022-12-31T07:53:56.958Z,88.36
2022-12-31T07:59:02.483Z,87.68
2022-12-31T08:04:06.983Z,87.20
2022-12-31T08:09:18.817Z,86.60
2022-12-31T08:14:20.228Z,85.85
2022-12-31T08:19:26.444Z,85.81
2022-12-31T08:24:42.936Z,84.79
2022-12-31T08:30:03.240Z,84.72
2022-12-31T08:35:13.681Z,84.21
2022-12-31T08:40:21.333Z,83.85
2022-12-31T08:45:35.802Z,84.09
2022-12-31T08:50:37.360Z,83.56
2022-12-31T08:55:39.460Z,83.74
2022-12-31T09:00:41.642Z,83.63
2022-12-31T09:05:52.990Z,83.39
2022-12-31T09:11:03.670Z,83.14
2022-12-31T09:16:14.181Z,82.83
2022-12-31T09:21:16.851Z,82.38
2022-12-31T09:26:24.083Z,82.83
2022-12-31T09:31:36.268Z,82.40
2022-12-31T09:36:46.284Z,82.17
2022-12-31T09:42:06.513Z,82.03
2022-12-31T09:47:10.981Z,81.65
2022-12-31T09:52:30.638Z,81.46
2022-12-31T09:57:38.056Z,80.91
2022-12-31T10:02:48.095Z,81.30
2022-12-31T10:07:58.717Z,81.28
2022-12-31T10:13:00.189Z,81.03
2022-12-31T10:18:18.136Z,80.89
2022-12-31T10:23:32.332Z,80.55
2022-12-31T10:28:38.117Z,80.08
2022-12-31T10:33:44.779Z,80.02
2022-12-31T10:38:46.367Z,79.99
2022-12-31T10:43:53.574Z,79.88
2022-12-31T10:49:16.509Z,79.54
2022-12-31T10:54:36.554Z,79.36
2022-12-31T10:59:43.912Z,79.40
2022-12-31T11:05:04.190Z,79.43
2022-12-31T11:10:21.120Z,79.58
2022-12-31T11:15:22.514Z,79.20
2022-12-31T11:20:38.948Z,79.07
2022-12-31T11:25:59.171Z,78.85
2022-12-31T11:31:07.001Z,79.15
2022-12-31T11:36:27.314Z,79.28
2022-12-31T11:41:48.901Z,79.15
2022-12-31T11:46:58.471Z,78.70
2022-12-31T11:52:12.013Z,78.64
2022-12-31T11:57:19.438Z,78.18
2022-12-31T12:02:24.936Z,77.68
2022-12-31T12:07:27.019Z,77.41
2022-12-31T12:12:39.180Z,77.33
2022-12-31T12:17:41.105Z,76.75
2022-12-31T12:22:50.292Z,76.37
2022-12-31T12:27:52.051Z,76.00
2022-12-31T12:32:55.028Z,75.69
2022-12-31T12:38:06.673Z,75.12
2022-12-31T12:43:21.426Z,75.15
2022-12-31T12:48:43.741Z,75.49
2022-12-31T12:53:55.230Z,75.55
2022-12-31T12:59:18.657Z,76.06
2022-12-31T13:04:35.261Z,76.74
2022-12-31T13:09:46.921Z,76.83
2022-12-31T13:15:11.225Z,77.16
2022-12-31T13:20:23.320Z,76.87
2022-12-31T13:25:43.029Z,76.25
2022-12-31T13:30:46.829Z,76.70
2022-12-31T13:35:51.193Z,76.29
2022-12-31T13:40:57.034Z,76.43
2022-12-31T13:46:04.588Z,76.45
2022-12-31T13:51:11.503Z,76.80
2022-12-31T13:56:14.829Z,76.93
2022-12-31T14:01:16.364Z,77.39
2022-12-31T14:06:33.747Z,77.09
2022-12-31T14:11:48.501Z,77.01
2022-12-31T14:16:57.696Z,77.30
2022-12-31T14:22:02.051Z,77.45
2022-12-31T14:27:07.168Z,77.70
2022-12-31T14:32:31.333Z,77.57
2022-12-31T14:37:51.558Z,77.76
2022-12-31T14:43:00.856Z,77.71
2022-12-31T14:48:10.579Z,77.82
2022-12-31T14:53:19.418Z,78.12
2022-12-31T14:58:28.241Z,78.17
2022-12-31T15:03:37.898Z,78.38
2022-12-31T15:09:07.503Z,78.67
2022-12-31T15:14:37.794Z,77.95
2022-12-31T15:19:50.629Z,77.83
2022-12-31T15:24:52.082Z,77.61
2022-12-31T15:29:53.745Z,77.94
2022-12-31T15:35:02.725Z,78.66
2022-12-31T15:40:18.269Z,79.70
2022-12-31T15:45:26.048Z,80.56
2022-12-31T15:50:27.833Z,81.24
2022-12-31T15:55:37.411Z,81.58
2022-12-31T16:00:54.984Z,81.96
2022-12-31T16:06:01.006Z,82.41
2022-12-31T16:11:07.265Z,81.83
2022-12-31T16:16:19.473Z,81.46
2022-12-31T16:21:30.651Z,80.54
2022-12-31T16:26:47.247Z,80.92
2022-12-31T16:31:49.769Z,81.16
2022-12-31T16:36:58.869Z,82.07
2022-12-31T16:42:09.359Z,81.92
2022-12-31T16:47:15.796Z,81.38
2022-12-31T16:52:23.267Z,81.37
2022-12-31T16:57:26.698Z,81.37
2022-12-31T17:02:50.170Z,81.32
2022-12-31T17:07:51.734Z,82.19
2022-12-31T17:18:22.164Z,83.08
2022-12-31T17:23:25.530Z,83.31
2022-12-31T17:28:27.797Z,83.51
2022-12-31T17:33:30.281Z,84.04
2022-12-31T17:38:32.419Z,83.84
2022-12-31T17:43:36.633Z,83.87
2022-12-31T17:48:38.307Z,83.93
2022-12-31T17:53:39.667Z,83.80
2022-12-31T17:58:52.032Z,83.24
2022-12-31T18:03:53.403Z,82.59
2022-12-31T18:08:54.775Z,82.83
2022-12-31T18:13:56.146Z,82.43
2022-12-31T18:18:58.812Z,82.83
2022-12-31T18:29:13.027Z,83.11
2022-12-31T18:34:15.079Z,83.28
2022-12-31T18:39:16.702Z,83.19
2022-12-31T18:44:18.283Z,83.16
2022-12-31T18:49:19.698Z,83.61
2022-12-31T18:54:22.176Z,83.54
2022-12-31T18:59:24.048Z,84.23
2022-12-31T19:04:28.350Z,84.46
2022-12-31T19:09:45.033Z,84.61
2022-12-31T19:14:46.917Z,84.92
2022-12-31T19:19:48.269Z,85.36
2022-12-31T19:24:49.620Z,85.32
2022-12-31T19:29:50.972Z,85.61
2022-12-31T19:34:54.217Z,85.68
2022-12-31T19:39:55.565Z,85.50
2022-12-31T19:44:56.957Z,84.65
2022-12-31T19:49:59.258Z,84.08
2022-12-31T19:55:00.634Z,83.26
2022-12-31T20:00:02.022Z,82.31
2022-12-31T20:05:14.894Z,82.43
2022-12-31T20:10:16.297Z,82.38
2022-12-31T20:15:18.553Z,81.73
2022-12-31T20:20:21.202Z,81.72
2022-12-31T20:25:23.058Z,82.27
2022-12-31T20:30:26.087Z,81.99
2022-12-31T20:35:27.508Z,82.06
2022-12-31T20:40:29.777Z,82.22
2022-12-31T20:45:31.133Z,81.84
2022-12-31T20:50:32.482Z,81.62
2022-12-31T20:55:36.770Z,80.91
2022-12-31T21:00:38.157Z,80.67
2022-12-31T21:05:46.213Z,80.40
2022-12-31T21:10:48.637Z,80.34
2022-12-31T21:15:50.780Z,79.46
2022-12-31T21:20:52.628Z,79.42
2022-12-31T21:25:53.936Z,79.37
2022-12-31T21:30:58.886Z,78.73
2022-12-31T21:36:04.432Z,78.63
2022-12-31T21:41:07.183Z,78.79
2022-12-31T21:46:09.548Z,77.88
2022-12-31T21:51:15.092Z,76.89
2022-12-31T21:56:18.551Z,75.96
2022-12-31T22:01:39.886Z,74.60
2022-12-31T22:06:41.351Z,74.72
2022-12-31T22:11:42.721Z,73.89
2022-12-31T22:16:44.152Z,73.74
2022-12-31T22:21:45.537Z,74.02
2022-12-31T22:26:47.076Z,73.95
2022-12-31T22:31:48.437Z,73.47
2022-12-31T22:36:49.801Z,73.42
2022-12-31T22:41:51.132Z,74.58
2022-12-31T22:46:52.727Z,74.09
2022-12-31T22:51:55.696Z,74.49
2022-12-31T22:56:58.814Z,74.20
2022-12-31T23:02:00.138Z,74.23
2022-12-31T23:07:01.457Z,74.43
2022-12-31T23:12:03.454Z,75.75
2022-12-31T23:17:31.365Z,76.31
2022-12-31T23:22:51.716Z,76.10
2022-12-31T23:27:53.101Z,76.51
2022-12-31T23:32:54.439Z,76.93
2022-12-31T23:37:55.820Z,76.85
2022-12-31T23:42:57.133Z,76.97
2022-12-31T23:47:58.534Z,76.94
2022-12-31T23:53:00.901Z,76.94
2022-12-31T23:58:02.237Z,76.22
